• Join FlightAware (Why Join?)
  • Login
  • US Flag 
02:59AM EDT


 

Airport Tracker/Info


-or-


 

Live Flight TrackerFlight Track Log ✈ VH-HLS ✈ 20-Sep-2013 ✈ YGEL / GET - YPJT / JAD

Flight Track Log - Related Links

Times and Time Zones

All times are in EDT time to prevent confusion due to time zone crossing. See the VH-HLS flight status page for this flight to view local times or setup timezone preferences in your user account.

Time Position Orientation Groundspeed Altitude Reporting Facility
EDT Latitude Longitude Course Direction KTS MPH feet Rate Location/Type
07:52AM -28.8928 114.7292 169° South 7,000  Level Aus ATC (Calculated)
07:53AM -28.9477 114.7416 169° South 7,000  Level Aus ATC (Calculated)
07:55AM -29.0143 114.7566 169° South  Level FlightAware Approximate
07:55AM -28.9952 114.7523 169° South 7,000  Level Aus ATC (Calculated)
07:56AM -29.0607 114.7671 169° South  Level FlightAware Approximate
07:56AM -29.0991 114.7758 169° South 7,000  Level Aus ATC (Calculated)
07:57AM -29.0618 114.7673 169° South  Level FlightAware Approximate
07:58AM -29.1502 114.7873 169° South  Level FlightAware Approximate
07:59AM -29.1967 114.7979 169° South  Level FlightAware Approximate
08:00AM -29.2417 114.8081 169° South  Level FlightAware Approximate
08:01AM -29.2882 114.8186 169° South  Level FlightAware Approximate
08:01AM -29.2697 114.8144 169° South 7,000  Level Aus ATC (Calculated)
08:01AM -29.2697 114.8144 169° South 7,000  Level Aus ATC (Calculated)
08:03AM -29.3358 114.8294 169° South  Level FlightAware Approximate
08:04AM -29.3842 114.8404 169° South  Level FlightAware Approximate
08:05AM -29.4325 114.8514 169° South  Level FlightAware Approximate
08:06AM -29.4809 114.8624 169° South  Level FlightAware Approximate
08:07AM -29.5293 114.8735 169° South  Level FlightAware Approximate
08:08AM -29.5777 114.8845 169° South  Level FlightAware Approximate
08:09AM -29.6260 114.8956 169° South  Level FlightAware Approximate
08:09AM -29.6724 114.9043 169° South 187 215 7,100  Level Aus ATC (RADAR)
08:09AM -29.6850 114.9061 173° South 187 215 7,100  Level Aus ATC (RADAR)
08:11AM -29.8048 114.9299 170° South 202 232 7,100  Level Aus ATC (RADAR)
08:12AM -29.8140 114.9303 178° South 202 232 7,100  Level Aus ATC (RADAR)
08:13AM -29.9000 114.9540 167° South 190 219 7,100  Level Aus ATC (RADAR)
08:14AM -29.9246 114.9649 159° South 190 219 7,100  Level Aus ATC (RADAR)
08:16AM -30.0213 114.9878 168° South 197 227 7,100  Level Aus ATC (RADAR)
08:16AM -30.0566 114.9968 167° South 183 211 7,100  Level Aus ATC (RADAR)
08:17AM -30.0897 114.9995 176° South 195 224  Descending Aus ATC (RADAR)
08:17AM -30.1257 115.0097 166° South 196 226 7,100 6,060 Climbing Aus ATC (RADAR)
08:18AM -30.1533 115.0129 174° South 197 227 7,100  Level Aus ATC (RADAR)
08:18AM -30.1844 115.0199 169° South 196 226 7,100  Level Aus ATC (RADAR)
08:19AM -30.2109 115.0269 167° South 194 223 7,100  Level Aus ATC (RADAR)
08:20AM -30.2462 115.0370 166° South 196 226 7,100  Level Aus ATC (RADAR)
08:20AM -30.2774 115.0441 169° South 194 223 7,100  Level Aus ATC (RADAR)
08:21AM -30.3135 115.0559 164° South 201 231 7,100  Level Aus ATC (RADAR)
08:21AM -30.3369 115.0722 149° Southeast 200 230 7,100  Level Aus ATC (RADAR)
08:22AM -30.3662 115.0886 154° Southeast 197 227 7,100  Level Aus ATC (RADAR)
08:23AM -30.4148 115.0921 176° South 207 238 7,100  Level Aus ATC (RADAR)
08:23AM -30.4461 115.0967 173° South 198 228 7,100  Level Aus ATC (RADAR)
08:24AM -30.4779 115.1015 173° South 199 229 7,100  Level Aus ATC (RADAR)
08:25AM -30.5097 115.1074 171° South 199 229 7,100  Level Aus ATC (RADAR)
08:25AM -30.5408 115.1159 167° South 198 228 7,100  Level Aus ATC (RADAR)
08:26AM -30.5720 115.1252 165° South 200 230 7,100  Level Aus ATC (RADAR)
08:26AM -30.5992 115.1333 166° South 199 229 7,100  Level Aus ATC (RADAR)
08:27AM -30.6282 115.1449 161° South 186 214 7,100  Level Aus ATC (RADAR)
08:27AM -30.6620 115.1517 170° South 204 235 7,100  Level Aus ATC (RADAR)
08:28AM -30.7000 115.1708 157° South 201 231 7,100  Level Aus ATC (RADAR)
08:28AM -30.7181 115.1799 157° South 209 241 7,100  Level Aus ATC (RADAR)
08:29AM -30.7473 115.1981 152° Southeast 202 232 7,100  Level Aus ATC (RADAR)
08:30AM -30.7776 115.2159 153° Southeast 202 232 7,100  Level Aus ATC (RADAR)
08:30AM -30.8089 115.2317 157° South 203 234 7,100  Level Aus ATC (RADAR)
08:31AM -30.8400 115.2466 158° South 202 232 7,100  Level Aus ATC (RADAR)
08:31AM -30.8750 115.2637 157° South 204 235 7,100  Level Aus ATC (RADAR)
08:32AM -30.9025 115.2754 160° South 208 239 7,100  Level Aus ATC (RADAR)
08:33AM -30.9338 115.2879 161° South 200 230 7,100  Level Aus ATC (RADAR)
08:33AM -30.9656 115.3027 158° South 204 235 7,100  Level Aus ATC (RADAR)
08:34AM -30.9968 115.3190 156° South 205 236 7,100  Level Aus ATC (RADAR)
08:34AM -31.0275 115.3367 154° Southeast 206 237 7,100  Level Aus ATC (RADAR)
08:35AM -31.0624 115.3565 154° Southeast 207 238 7,100  Level Aus ATC (RADAR)
08:35AM -31.0884 115.3711 154° Southeast 207 238 7,100  Level Aus ATC (RADAR)
08:36AM -31.1191 115.3867 156° South 201 231 7,100  Level Aus ATC (RADAR)
08:37AM -31.1498 115.4031 156° South 202 232 7,100  Level Aus ATC (RADAR)
08:37AM -31.1808 115.4184 157° South 202 232 7,100  Level Aus ATC (RADAR)
08:38AM -31.2158 115.4360 157° South 202 232 7,100  Level Aus ATC (RADAR)
08:38AM -31.2422 115.4492 157° South 204 235 7,100  Level Aus ATC (RADAR)
08:39AM -31.2688 115.4621 157° South 206 237 7,100  Level Aus ATC (RADAR)
08:39AM -31.2999 115.4766 158° South 200 230 7,100  Level Aus ATC (RADAR)
08:40AM -31.3353 115.4949 156° South 201 231 7,100  Level Aus ATC (RADAR)
08:41AM -31.3621 115.5080 157° South 203 234 7,100 -180 Level Aus ATC (RADAR)
08:41AM -31.3985 115.5263 157° South 213 245 6,900 -360 Descending Aus ATC (RADAR)
08:42AM -31.4316 115.5429 157° South 221 254 6,700 -480 Descending Aus ATC (RADAR)
08:42AM -31.4597 115.5573 156° South 220 253 6,400 -540 Descending Aus ATC (RADAR)
08:43AM -31.5077 115.5818 156° South 220 253 6,000 -480 Descending Aus ATC (RADAR)
08:44AM -31.5359 115.5967 156° South 218 251 5,800 -420 Descending Aus ATC (RADAR)
08:44AM -31.5690 115.6131 157° South 218 251 5,600 -600 Descending Aus ATC (RADAR)
08:45AM -31.6060 115.6316 157° South 217 250 5,100 -720 Descending Aus ATC (RADAR)
08:45AM -31.6336 115.6453 157° South 217 250 4,800 -660 Descending Aus ATC (RADAR)
08:46AM -31.6647 115.6606 157° South 207 238 4,400 -660 Descending Aus ATC (RADAR)
08:47AM -31.7002 115.6773 158° South 201 231 4,000 -540 Descending Aus ATC (RADAR)
08:47AM -31.7268 115.6901 158° South 201 231 3,800 -540 Descending Aus ATC (RADAR)
08:48AM -31.7612 115.7088 155° Southeast 202 232 3,400 -540 Descending Aus ATC (RADAR)
08:48AM -31.7875 115.7207 159° South 202 232 3,200 -600 Descending Aus ATC (RADAR)
08:49AM -31.8175 115.7385 153° Southeast 207 238 2,800 -600 Descending Aus ATC (RADAR)
08:50AM -31.8518 115.7542 159° South 196 226 2,500 -480 Descending Aus ATC (RADAR)
08:50AM -31.8770 115.7685 154° Southeast 197 227 2,300 -420 Descending Aus ATC (RADAR)
08:51AM -31.9059 115.7822 158° South 190 219 2,100 -240 Descending Aus ATC (RADAR)
08:51AM -31.9379 115.7993 156° South 185 213 2,000 -120 Descending Aus ATC (RADAR)
08:52AM -31.9609 115.8107 157° South 179 206 2,000  Level Aus ATC (RADAR)
08:53AM -31.9914 115.8264 156° South 178 205 2,000  Level Aus ATC (RADAR)
08:53AM -32.0211 115.8398 159° South 168 193 2,000 -240 Level Aus ATC (RADAR)
08:54AM -32.0397 115.8477 160° South 167 192 1,800 -420 Descending Aus ATC (RADAR)
08:54AM -32.0653 115.8602 158° South 171 197 1,600 -180 Descending Aus ATC (RADAR)
08:55AM -32.0880 115.8743 152° Southeast 158 182 1,600 -300 Level Aus ATC (RADAR)
08:55AM -32.0979 115.8957 119° Southeast 147 169 1,300 -540 Descending Aus ATC (RADAR)
08:56AM -32.0996 115.9244 94° East 131 151 1,000 -480 Descending Aus ATC (RADAR)
08:57AM -32.0832 115.9145 333° Northwest 108 124 700 -480 Descending Aus ATC (RADAR)
08:57AM -32.0861 115.8978 258° West 92 106 500 -360 Descending Aus ATC (RADAR)
08:58AM -32.0943 115.8832 236° Southwest 89 102 300 -420 Descending Aus ATC (RADAR)
08:58AM -32.0966 115.8792 236° Southwest 89 102 200 -600 Descending Aus ATC (RADAR)